This is the latest recevied weather packets stored in our database for station/object W4SMH. If no packets are shown the sender has not sent any weather packets the latest 10 day(s).
| Time | Temp. | Humidity | Pressure | Rain* | Wind** | Luminosity | Snow |
|---|---|---|---|---|---|---|---|
| 1777823687 | 12.22° C | 69% | 1009.4 hPa | 0 mm | - | 77 W/m² | - |
| 1777823417 | 12.22° C | 67% | 1009.6 hPa | 0 mm | - | 90 W/m² | - |
| 1777822897 | 13.33° C | 64% | 1009.6 hPa | 0 mm | - | 230 W/m² | - |
| 1777821898 | 13.33° C | 62% | 1009.3 hPa | 0 mm | - | 338 W/m² | - |
| 1777821620 | 13.33° C | 61% | 1009.6 hPa | 0 mm | - | 323 W/m² | - |
| 1777821592 | 13.33° C | 61% | 1009.3 hPa | 0 mm | - | 327 W/m² | - |
| 1777820567 | 12.78° C | 61% | 1009.6 hPa | 0 mm | - | 329 W/m² | - |
| 1777820374 | 13.33° C | 62% | 1009.6 hPa | 0 mm | - | 290 W/m² | - |
| 1777820169 | 13.33° C | 61% | 1009.5 hPa | 0 mm | - | 262 W/m² | - |
| 1777820128 | 13.33° C | 61% | 1009.5 hPa | 0 mm | - | 264 W/m² | - |
| 1777820088 | 13.33° C | 62% | 1009.4 hPa | 0 mm | - | 265 W/m² | - |
| 1777819728 | 13.33° C | 60% | 1009.5 hPa | 0 mm | - | 313 W/m² | - |
| 1777819702 | 13.33° C | 60% | 1009.6 hPa | 0 mm | - | 353 W/m² | - |
| 1777819281 | 6.67° C | 78% | 1015 hPa | 0 mm | - | 104 W/m² | - |
| 1777818960 | 13.33° C | 61% | 1009.7 hPa | 0 mm | - | 255 W/m² | - |
| 1777818930 | 13.33° C | 61% | 1009.6 hPa | 0 mm | - | 250 W/m² | - |
| 1777818681 | 13.89° C | 60% | 1009.6 hPa | 0 mm | - | 304 W/m² | - |
| 1777818617 | 13.89° C | 60% | 1009.7 hPa | 0 mm | - | 341 W/m² | - |
| 1777818402 | 13.89° C | 61% | 1009.5 hPa | 0 mm | - | 408 W/m² | - |
| 1777818287 | 13.33° C | 62% | 1009.6 hPa | 0 mm | - | 737 W/m² | - |
| 1777817910 | 13.33° C | 60% | 1009.5 hPa | 0 mm | - | 304 W/m² | - |
| 1777817344 | 12.78° C | 60% | 1009.7 hPa | 0 mm | - | 613 W/m² | - |
| 1777817313 | 12.78° C | 60% | 1009.8 hPa | 0 mm | - | 626 W/m² | - |
| 1777817218 | 12.78° C | 59% | 1009.8 hPa | 0 mm | - | 587 W/m² | - |
| 1777816688 | 12.78° C | 59% | 1009.9 hPa | 0 mm | - | 531 W/m² | - |
* Rain latest hour (hover to see other rain measurements)
** Current wind speed in m/s (hover to see current wind gust speed)